KGE weather

Kaghau Airport
Kagau Island, Choiseul, Solomon Islands

Public forecast

Using degrees Celsius for public forecast. Weather courtesy of forecast.io.

METAR (pilot weather report)

Report is more than 6 hours old.

Closest report is Munda Airport, 62.9 nm (116.4 km) SSW. Retrieved 2019/05/05 00:00 UTC (2 months ago):

AGGM 050000Z 00000KT 9999 HZ FEW018 BKN100 28/25 Q1009

TAF (pilot weather forecast)

Forecast is more than 12 hours old.

Closest forecast is Munda Airport, 62.9 nm (116.4 km) SSW. Retrieved 2019/07/10 12:15 UTC (5 days ago):

TAF TAF AGGH 101110Z 1012/1112 VRB03KT 9999 -SHRA FEW016 SCT028 BKN100 PROB40 INTER 1012/1018 3000 TSRA SCT009 FEW016CB BKN029 T 25 24 23 26 Q 1011 1009 1008 1010 TAF AGGM 101110Z 1012/1112 VRB03KT 9999 -SHRA FEW016 SCT028 BKN100 INTER 1012/1018 3000 SHRA SCT009 FEW016CB BKN029 Q 1011 1009 1008 1010